Time;durP1;ratioP1;P1;durP2;ratioP2;P2;SDS_P1;SDS_P2;PMS_P1;PMS_P2;Temp;Humidity;BMP_temperature;BMP_pressure;BME280_temperature;BME280_humidity;BME280_pressure;Samples;Min_cycle;Max_cycle;Signal;HPM_P1;HPM_P2
2022/12/11 00:04:46;;;;;;;4.33;2.20;;;5.70;99.90;;;3.41;100.00;98011.63;10533044;27;20113;-90
2022/12/11 00:09:49;;;;;;;4.83;2.00;;;5.70;99.90;;;3.36;100.00;98000.88;10552241;28;20057;-90
2022/12/11 00:14:52;;;;;;;3.73;1.77;;;5.60;99.90;;;3.35;100.00;97995.75;10573244;28;20083;-90
2022/12/11 00:19:55;;;;;;;4.67;2.40;;;5.60;99.90;;;3.30;100.00;97979.72;10573277;27;20060;-90
2022/12/11 00:24:58;;;;;;;5.73;2.53;;;5.60;99.90;;;3.23;100.00;97974.34;10560258;27;20087;-90
2022/12/11 00:30:01;;;;;;;5.37;2.53;;;5.50;99.90;;;3.15;100.00;97962.13;10619039;27;20091;-90
2022/12/11 00:35:04;;;;;;;6.33;3.30;;;5.40;99.90;;;3.08;100.00;97969.06;10555618;28;20482;-90
2022/12/11 00:40:08;;;;;;;5.10;3.27;;;5.30;99.90;;;3.02;100.00;97979.44;10566593;27;20113;-90
2022/12/11 00:45:11;;;;;;;4.77;2.73;;;5.30;99.90;;;2.93;100.00;97974.22;10615548;27;20512;-91
2022/12/11 00:50:14;;;;;;;6.93;2.77;;;5.20;99.90;;;2.87;100.00;97967.03;10565675;27;20195;-89
2022/12/11 00:55:17;;;;;;;4.53;2.70;;;5.10;99.90;;;2.79;100.00;97972.34;10608208;27;20132;-90
2022/12/11 01:00:24;;;;;;;4.63;2.50;;;5.00;99.90;;;2.72;100.00;97976.66;10579682;27;20533;-88
2022/12/11 01:05:27;;;;;;;5.20;3.03;;;5.00;99.90;;;2.69;100.00;97977.81;10610840;27;20069;-89
2022/12/11 01:10:31;;;;;;;7.10;2.73;;;4.90;99.90;;;2.63;100.00;97977.69;10586397;27;20105;-90
2022/12/11 01:15:41;;;;;;;6.27;3.13;;;4.90;99.90;;;2.55;100.00;97973.28;10589700;27;20059;-89
2022/12/11 01:20:45;;;;;;;4.80;2.47;;;4.80;99.90;;;2.47;100.00;97970.72;10590414;27;20067;-89
2022/12/11 01:25:48;;;;;;;7.70;2.97;;;4.70;99.90;;;2.42;100.00;97978.28;10607283;27;20109;-89
2022/12/11 01:30:51;;;;;;;7.07;3.33;;;4.60;99.90;;;2.31;100.00;97979.47;10588492;27;20052;-89
2022/12/11 01:35:54;;;;;;;5.93;2.80;;;4.60;99.90;;;2.20;100.00;97974.56;10609101;27;20052;-89
2022/12/11 01:40:57;;;;;;;5.90;2.67;;;4.40;99.90;;;2.10;100.00;97979.22;10603221;27;20044;-89
2022/12/11 01:46:06;;;;;;;6.53;3.33;;;4.30;99.90;;;2.01;100.00;97990.69;10648086;27;20059;-89
2022/12/11 01:51:09;;;;;;;6.67;3.40;;;4.30;99.90;;;1.93;100.00;97977.63;10603917;27;20393;-89
2022/12/11 01:56:12;;;;;;;6.23;3.20;;;4.20;99.90;;;1.82;100.00;97971.75;10592941;27;20070;-89
2022/12/11 02:01:33;;;;;;;4.80;2.83;;;4.10;99.90;;;1.72;100.00;97981.56;10621115;27;20071;-88
2022/12/11 02:06:42;;;;;;;6.35;3.42;;;4.00;99.90;;;1.61;100.00;97990.56;10609681;27;20064;-88
2022/12/11 02:11:45;;;;;;;5.53;2.57;;;3.90;99.90;;;1.54;100.00;97980.94;10564347;28;20133;-88
2022/12/11 02:17:08;;;;;;;6.60;2.73;;;3.80;99.90;;;1.46;100.00;97981.75;10584122;27;20062;-88
2022/12/11 02:23:06;;;;;;;5.97;2.77;;;3.70;99.90;;;1.39;100.00;97975.56;10603050;27;20082;-88
2022/12/11 02:28:20;;;;;;;4.73;2.53;;;3.70;99.90;;;1.32;100.00;97987.66;10579722;27;20071;-88
2022/12/11 02:33:37;;;;;;;4.43;2.13;;;3.60;99.90;;;1.22;100.00;97993.03;10610289;27;20538;-87
2022/12/11 02:38:49;;;;;;;4.57;2.40;;;3.50;99.90;;;1.16;100.00;97979.78;10588286;27;20056;-89
2022/12/11 02:43:54;;;;;;;4.63;1.92;;;3.40;99.90;;;1.10;100.00;97985.69;10596189;27;20471;-88
2022/12/11 02:48:57;;;;;;;4.23;1.90;;;3.40;99.90;;;1.04;100.00;97972.25;10627903;27;20062;-89
2022/12/11 02:54:01;;;;;;;5.20;1.90;;;3.30;99.90;;;0.99;100.00;97971.09;10608611;27;20072;-91
2022/12/11 02:59:12;;;;;;;2.90;1.47;;;3.30;99.90;;;0.97;100.00;97988.75;10604995;27;20055;-90
2022/12/11 03:04:15;;;;;;;3.13;1.42;;;3.30;99.90;;;0.94;100.00;97971.56;10596053;27;20117;-90
2022/12/11 03:09:19;;;;;;;3.13;1.40;;;3.30;99.90;;;0.95;100.00;97970.59;10593675;27;20499;-88
2022/12/11 03:14:21;;;;;;;3.07;1.33;;;3.30;99.90;;;0.95;100.00;97973.22;10612012;27;20138;-89
2022/12/11 03:19:40;;;;;;;2.67;1.23;;;3.30;99.90;;;0.93;100.00;97963.91;10642700;27;20076;-89
2022/12/11 03:25:22;;;;;;;1.70;0.90;;;3.30;99.90;;;0.91;100.00;97960.66;10604334;27;20067;-89
2022/12/11 03:30:30;;;;;;;3.07;0.93;;;3.20;99.90;;;0.92;100.00;97957.03;10586296;27;20606;-88
2022/12/11 03:35:47;;;;;;;2.07;1.03;;;3.30;99.90;;;0.89;100.00;97962.59;10575408;27;20067;-89
2022/12/11 03:40:55;;;;;;;2.47;0.70;;;3.20;99.90;;;0.90;100.00;97957.22;10588804;27;20067;-87
2022/12/11 03:46:00;;;;;;;1.93;0.80;;;3.20;99.90;;;0.89;100.00;97957.34;10608359;27;20419;-87
2022/12/11 03:51:07;;;;;;;2.60;0.90;;;3.30;99.90;;;0.88;100.00;97963.56;10627270;27;20055;-87
2022/12/11 03:56:13;;;;;;;1.57;0.90;;;3.20;99.90;;;0.84;100.00;97963.09;10570969;27;20083;-87
2022/12/11 04:01:16;;;;;;;1.70;1.00;;;3.20;99.90;;;0.80;100.00;97961.75;10587082;27;20063;-87
2022/12/11 04:06:19;;;;;;;1.87;0.97;;;3.10;99.90;;;0.73;100.00;97956.34;10567889;28;20420;-87
2022/12/11 04:11:33;;;;;;;3.07;0.93;;;3.10;99.90;;;0.71;100.00;97960.91;10623159;27;20450;-87
2022/12/11 04:16:36;;;;;;;1.30;0.70;;;3.00;99.90;;;0.64;100.00;97964.34;10633430;27;20060;-85
2022/12/11 04:27:00;;;;;;;1.50;0.90;;;2.90;99.90;;;0.56;100.00;97982.63;10585285;27;20504;-87
2022/12/11 04:32:04;;;;;;;3.77;1.30;;;2.90;99.90;;;0.51;100.00;97980.47;10599506;27;20059;-87
2022/12/11 04:37:07;;;;;;;2.70;1.10;;;2.80;99.90;;;0.46;100.00;97991.38;10609186;27;20059;-88
2022/12/11 04:42:09;;;;;;;2.20;1.33;;;2.80;99.90;;;0.40;100.00;98002.47;10582340;27;20058;-88
2022/12/11 04:47:12;;;;;;;2.53;0.93;;;2.70;99.90;;;0.39;100.00;98005.25;10588774;27;20063;-88
2022/12/11 04:52:17;;;;;;;1.53;0.70;;;2.70;99.90;;;0.34;100.00;98016.16;10623316;27;20400;-85
2022/12/11 04:57:21;;;;;;;2.83;1.23;;;2.70;99.90;;;0.35;100.00;98033.47;10565405;28;20479;-86
2022/12/11 05:02:25;;;;;;;1.93;1.10;;;2.60;99.90;;;0.34;100.00;98034.44;10590881;27;20056;-85
2022/12/11 05:07:28;;;;;;;3.03;1.10;;;2.70;99.90;;;0.37;100.00;98046.41;10610768;27;20101;-85
2022/12/11 05:12:32;;;;;;;3.73;1.27;;;2.60;99.90;;;0.37;100.00;98054.22;10555246;28;20079;-85
2022/12/11 05:17:35;;;;;;;3.23;1.40;;;2.70;99.90;;;0.38;100.00;98064.53;10593594;27;20055;-85
2022/12/11 05:22:38;;;;;;;3.10;1.43;;;2.60;99.90;;;0.40;100.00;98059.94;10646617;27;20067;-85
2022/12/11 05:27:41;;;;;;;1.30;0.83;;;2.70;99.90;;;0.40;100.00;98072.19;10613209;27;20062;-85
2022/12/11 05:32:45;;;;;;;3.50;1.50;;;2.70;99.90;;;0.42;100.00;98075.47;10594659;27;20066;-85
2022/12/11 05:37:48;;;;;;;2.07;1.17;;;2.70;99.90;;;0.42;100.00;98054.56;10599311;27;20051;-86
2022/12/11 05:42:51;;;;;;;2.30;1.30;;;2.70;99.90;;;0.41;100.00;98056.34;10612704;27;20060;-85
2022/12/11 05:47:54;;;;;;;2.57;1.13;;;2.70;99.90;;;0.45;100.00;98062.09;10611991;27;20056;-87
2022/12/11 05:52:57;;;;;;;2.73;1.30;;;2.70;99.90;;;0.46;100.00;98071.56;10646905;27;20056;-85
2022/12/11 05:58:00;;;;;;;3.17;1.50;;;2.80;99.90;;;0.45;100.00;98059.50;10615009;27;20450;-84
2022/12/11 06:03:03;;;;;;;2.60;1.23;;;2.80;99.90;;;0.43;100.00;98070.09;10594104;27;20087;-84
2022/12/11 06:08:06;;;;;;;4.83;2.50;;;2.70;99.90;;;0.42;100.00;98078.94;10644971;27;20449;-84
2022/12/11 06:13:09;;;;;;;3.33;1.57;;;2.70;99.90;;;0.42;100.00;98096.38;10574864;27;20113;-84
2022/12/11 06:18:12;;;;;;;3.50;1.60;;;2.70;99.90;;;0.43;100.00;98118.94;10596931;27;20052;-83
2022/12/11 06:23:16;;;;;;;5.03;2.10;;;2.70;99.90;;;0.46;100.00;98136.91;10577048;27;20275;-88
2022/12/11 06:28:19;;;;;;;2.77;1.53;;;2.70;99.90;;;0.42;100.00;98143.41;10575469;28;20797;-89
2022/12/11 06:33:22;;;;;;;3.33;2.00;;;2.70;99.90;;;0.44;100.00;98146.69;10583367;27;20055;-88
2022/12/11 06:38:25;;;;;;;5.17;2.30;;;2.70;99.90;;;0.40;100.00;98161.84;10591969;27;20513;-87
2022/12/11 06:43:28;;;;;;;3.80;2.03;;;2.70;99.90;;;0.36;100.00;98162.31;10577036;27;20056;-88
2022/12/11 06:48:32;;;;;;;6.30;2.53;;;2.70;99.90;;;0.35;100.00;98178.97;10612448;27;20062;-87
2022/12/11 06:53:35;;;;;;;2.87;1.67;;;2.70;99.90;;;0.34;100.00;98199.03;10621385;27;20059;-87
2022/12/11 06:58:39;;;;;;;5.27;2.30;;;2.60;99.90;;;0.31;100.00;98203.78;10631235;27;20134;-87
2022/12/11 07:03:42;;;;;;;6.83;3.30;;;2.60;99.90;;;0.31;100.00;98212.44;10627925;27;20059;-88
2022/12/11 07:08:46;;;;;;;3.90;2.00;;;2.60;99.90;;;0.26;100.00;98212.88;10592478;27;20055;-87
2022/12/11 07:13:49;;;;;;;7.27;2.60;;;2.60;99.90;;;0.32;100.00;98213.25;10568397;27;20056;-86
2022/12/11 07:18:52;;;;;;;4.43;2.40;;;2.60;99.90;;;0.34;100.00;98219.13;10624678;27;20105;-87
2022/12/11 07:23:55;;;;;;;4.67;2.07;;;2.60;99.90;;;0.36;100.00;98231.09;10578391;27;20063;-86
2022/12/11 07:28:59;;;;;;;4.80;2.37;;;2.70;99.90;;;0.39;100.00;98230.78;10628877;27;20059;-87
2022/12/11 07:34:05;;;;;;;5.73;2.73;;;2.70;99.90;;;0.44;100.00;98243.38;10606412;27;20083;-93
2022/12/11 07:39:11;;;;;;;10.27;4.33;;;2.70;99.90;;;0.47;100.00;98245.69;10623132;27;20075;-91
2022/12/11 07:44:14;;;;;;;5.17;2.57;;;2.80;99.90;;;0.50;100.00;98251.44;10601035;27;20548;-91
2022/12/11 07:49:18;;;;;;;4.83;2.67;;;2.80;99.90;;;0.53;100.00;98260.75;10610254;27;20093;-91
2022/12/11 07:54:21;;;;;;;5.40;2.27;;;2.80;99.90;;;0.60;100.00;98260.97;10605797;27;20063;-91
2022/12/11 07:59:24;;;;;;;3.77;2.07;;;2.90;99.90;;;0.63;100.00;98258.88;10586235;27;20056;-91
2022/12/11 08:04:27;;;;;;;6.53;2.57;;;2.90;99.90;;;0.69;100.00;98260.88;10592841;27;20051;-89
2022/12/11 08:09:30;;;;;;;5.53;2.53;;;3.00;99.90;;;0.72;100.00;98271.06;10646188;27;20083;-89
2022/12/11 08:14:33;;;;;;;5.13;2.83;;;3.00;99.90;;;0.75;100.00;98296.88;10606551;27;20076;-90
2022/12/11 08:19:36;;;;;;;5.20;2.60;;;3.10;99.90;;;0.76;100.00;98295.91;10613017;27;20059;-89
2022/12/11 08:24:39;;;;;;;5.93;3.40;;;3.10;99.90;;;0.76;100.00;98314.19;10587339;27;20064;-90
2022/12/11 08:29:42;;;;;;;8.33;3.77;;;3.10;99.90;;;0.78;100.00;98327.97;10553434;27;20084;-89
2022/12/11 08:34:45;;;;;;;3.87;2.17;;;3.10;99.90;;;0.77;100.00;98330.72;10562524;27;20579;-88
2022/12/11 08:39:48;;;;;;;3.80;1.87;;;3.10;99.90;;;0.78;100.00;98354.09;10615856;27;20062;-89
2022/12/11 08:44:51;;;;;;;4.57;1.80;;;3.10;99.90;;;0.77;100.00;98356.84;10607692;27;20144;-88
2022/12/11 08:49:54;;;;;;;3.70;2.00;;;3.10;99.90;;;0.76;100.00;98365.69;10570752;27;20499;-88
2022/12/11 08:54:57;;;;;;;2.50;1.70;;;3.10;99.90;;;0.77;99.71;98370.75;10613734;27;20151;-81
2022/12/11 09:00:00;;;;;;;4.97;2.47;;;3.10;99.90;;;0.76;99.71;98381.34;10615348;27;20166;-84
2022/12/11 09:05:06;;;;;;;4.03;2.00;;;3.10;99.90;;;0.76;99.12;98379.56;10604122;27;20055;-84
2022/12/11 09:10:10;;;;;;;3.60;2.00;;;3.10;99.90;;;0.75;98.67;98380.53;10554189;27;20064;-87
2022/12/11 09:15:12;;;;;;;6.10;2.20;;;3.10;99.90;;;0.76;98.25;98383.97;10584758;27;20059;-83
2022/12/11 09:20:16;;;;;;;22.67;7.37;;;3.10;99.90;;;0.75;98.15;98374.50;10593882;27;20059;-82
2022/12/11 09:25:19;;;;;;;5.77;2.53;;;3.10;99.90;;;0.75;98.42;98377.94;10597600;27;20064;-86
2022/12/11 09:30:22;;;;;;;3.93;2.10;;;3.10;99.90;;;0.76;97.68;98384.78;10556536;27;20076;-87
2022/12/11 09:35:26;;;;;;;3.63;1.80;;;3.10;99.90;;;0.76;97.48;98376.13;10640907;27;20058;-86
2022/12/11 09:40:31;;;;;;;12.97;4.10;;;3.10;99.90;;;0.77;97.68;98372.53;10581357;27;20051;-89
2022/12/11 09:45:34;;;;;;;3.67;1.80;;;3.10;99.90;;;0.82;97.06;98364.25;10563055;27;20140;-89
2022/12/11 09:50:38;;;;;;;8.27;3.40;;;3.10;99.90;;;0.86;96.93;98363.00;10594700;27;20167;-87
2022/12/11 09:56:09;;;;;;;4.40;1.70;;;3.20;99.90;;;0.90;96.47;98380.00;10590513;27;20056;-86
2022/12/11 10:01:57;;;;;;;3.17;1.57;;;3.20;99.90;;;0.87;95.99;98360.22;10586740;28;20056;-86
2022/12/11 10:07:26;;;;;;;3.33;1.67;;;3.20;99.90;;;0.91;96.25;98337.22;10518691;28;20524;-87
2022/12/11 10:12:43;;;;;;;3.43;1.57;;;3.30;99.90;;;0.97;95.06;98353.13;10587677;27;20064;-86
2022/12/11 10:17:46;;;;;;;2.63;1.50;;;3.30;99.90;;;0.99;94.95;98324.19;10569294;28;20466;-86
2022/12/11 10:22:53;;;;;;;2.83;1.70;;;3.30;99.90;;;1.02;93.69;98331.72;10566836;28;20381;-86
2022/12/11 10:27:56;;;;;;;3.30;1.77;;;3.40;99.90;;;1.01;93.18;98332.69;10598955;27;20220;-86
2022/12/11 10:33:39;;;;;;;4.03;1.50;;;3.40;99.90;;;1.00;92.79;98346.75;10538515;28;20061;-84
2022/12/11 10:38:44;;;;;;;3.50;1.92;;;3.30;99.90;;;0.98;92.58;98353.94;10595448;27;20086;-84
2022/12/11 10:43:51;;;;;;;4.47;1.60;;;3.30;99.90;;;0.96;92.17;98374.16;10564517;28;20079;-83
2022/12/11 10:48:58;;;;;;;3.40;1.90;;;3.30;99.90;;;0.93;92.19;98375.31;10552194;28;20060;-83
2022/12/11 10:54:42;;;;;;;5.03;2.37;;;3.30;99.90;;;0.93;92.43;98384.94;10564495;28;20052;-84
2022/12/11 10:59:49;;;;;;;9.10;2.83;;;3.30;99.90;;;0.90;92.47;98395.69;10592323;27;20081;-86
2022/12/11 11:04:54;;;;;;;5.73;2.63;;;3.30;99.90;;;0.87;92.53;98396.00;10602584;27;20056;-85
2022/12/11 11:10:24;;;;;;;6.97;2.43;;;3.30;99.90;;;0.86;92.44;98383.91;10557717;27;20397;-86
2022/12/11 11:15:29;;;;;;;5.90;2.17;;;3.30;99.90;;;0.89;92.46;98391.44;10585506;27;20056;-86
2022/12/11 11:20:33;;;;;;;6.10;2.23;;;3.30;99.90;;;0.87;92.15;98388.97;10623927;27;20058;-85
2022/12/11 11:25:36;;;;;;;3.90;2.00;;;3.30;99.90;;;0.91;91.76;98379.06;10576066;27;20154;-84
2022/12/11 11:30:41;;;;;;;5.50;2.87;;;3.30;99.90;;;0.91;90.72;98374.63;10573267;27;20086;-85
2022/12/11 11:36:04;;;;;;;6.47;3.00;;;3.30;99.90;;;0.95;91.13;98364.69;10591157;27;20150;-86
2022/12/11 11:41:19;;;;;;;5.23;2.10;;;3.30;99.90;;;1.06;91.35;98367.06;10586376;27;20461;-86
2022/12/11 11:46:54;;;;;;;4.77;2.40;;;3.40;99.90;;;1.14;90.61;98395.06;10588154;27;20052;-88
2022/12/11 11:52:28;;;;;;;6.53;2.63;;;3.50;99.90;;;1.18;90.21;98399.84;10600418;27;20087;-88
2022/12/11 11:57:42;;;;;;;6.88;3.50;;;3.50;99.90;;;1.16;89.03;98399.19;10572680;27;20056;-84
2022/12/11 12:02:49;;;;;;;7.47;2.53;;;3.60;99.90;;;1.18;88.59;98406.88;10570865;27;20055;-87
2022/12/11 12:08:11;;;;;;;11.33;5.00;;;3.60;99.90;;;1.16;88.95;98420.13;10594013;27;20060;-87
2022/12/11 12:13:40;;;;;;;3.65;1.83;;;3.60;99.90;;;1.16;89.02;98433.19;10562087;27;20496;-88
2022/12/11 12:19:32;;;;;;;6.70;3.07;;;3.50;99.90;;;1.15;88.56;98449.88;10621016;27;20088;-87
2022/12/11 12:25:23;;;;;;;3.90;2.00;;;3.50;99.90;;;1.15;87.66;98449.06;10623353;27;20116;-87
2022/12/11 12:30:37;;;;;;;9.00;4.43;;;3.50;99.90;;;1.12;88.12;98452.78;10609169;27;20060;-87
2022/12/11 12:35:51;;;;;;;5.63;2.90;;;3.50;99.90;;;1.12;88.49;98458.00;10606858;27;20055;-87
2022/12/11 12:41:31;;;;;;;5.80;3.10;;;3.50;99.90;;;1.10;88.07;98448.69;10587994;27;20063;-85
2022/12/11 12:46:56;;;;;;;8.37;4.17;;;3.50;99.90;;;1.10;88.02;98439.03;10577076;27;20055;-85
2022/12/11 12:52:00;;;;;;;9.80;4.47;;;3.50;99.90;;;1.11;88.03;98443.28;10602462;27;20054;-86
2022/12/11 12:57:04;;;;;;;6.17;3.53;;;3.50;99.90;;;1.11;88.47;98451.16;10622096;27;20055;-86
2022/12/11 13:02:15;;;;;;;9.13;2.90;;;3.50;99.90;;;1.10;88.79;98470.44;10553786;28;20171;-86
2022/12/11 13:07:31;;;;;;;9.23;3.60;;;3.50;99.90;;;1.10;88.64;98472.22;10582246;27;20060;-86
2022/12/11 13:12:45;;;;;;;6.40;2.63;;;3.50;99.90;;;1.10;88.58;98493.97;10560940;27;20056;-84
2022/12/11 13:17:48;;;;;;;4.53;2.40;;;3.50;99.90;;;1.09;88.13;98505.41;10545949;27;20146;-85
2022/12/11 13:23:06;;;;;;;6.73;3.43;;;3.50;99.90;;;1.08;88.66;98516.84;10551383;27;20075;-85
2022/12/11 13:28:30;;;;;;;8.23;3.03;;;3.50;99.90;;;1.06;89.43;98518.78;10588946;27;20067;-85
2022/12/11 13:33:45;;;;;;;6.40;3.43;;;3.50;99.90;;;1.07;88.62;98525.66;10552815;27;20133;-86
2022/12/11 13:39:01;;;;;;;6.77;2.90;;;3.50;99.90;;;1.07;89.01;98523.03;10568400;28;20095;-86
2022/12/11 13:44:06;;;;;;;4.77;2.90;;;3.50;99.90;;;1.04;88.84;98526.78;10547606;27;20488;-85
2022/12/11 13:49:24;;;;;;;8.23;3.90;;;3.50;99.90;;;1.04;88.91;98531.19;10553762;27;20052;-85
2022/12/11 13:54:31;;;;;;;7.37;2.87;;;3.50;99.90;;;1.01;89.05;98537.53;10547942;28;20117;-84
2022/12/11 13:59:42;;;;;;;5.73;2.57;;;3.40;99.90;;;0.96;87.84;98534.56;10570413;27;20063;-84
2022/12/11 14:04:48;;;;;;;5.80;2.83;;;3.40;99.90;;;0.93;87.95;98544.47;10586164;27;20067;-81
2022/12/11 14:09:54;;;;;;;8.63;3.07;;;3.40;99.90;;;0.89;88.17;98548.34;10581165;27;20530;-81
2022/12/11 14:15:01;;;;;;;8.17;4.03;;;3.30;99.90;;;0.85;87.74;98560.91;10616140;27;20491;-84
2022/12/11 14:20:08;;;;;;;6.90;3.10;;;3.20;99.90;;;0.81;88.44;98577.84;10625297;27;20105;-85
2022/12/11 14:25:24;;;;;;;6.93;3.60;;;3.20;99.90;;;0.76;88.41;98582.69;10598017;27;20415;-84
2022/12/11 14:30:32;;;;;;;9.93;4.40;;;3.20;99.90;;;0.71;88.46;98590.97;10609096;27;20171;-84
2022/12/11 14:35:40;;;;;;;11.27;5.23;;;3.20;99.90;;;0.68;88.29;98604.34;10592442;27;20071;-85
2022/12/11 14:40:48;;;;;;;11.53;5.47;;;3.10;99.90;;;0.64;88.79;98610.00;10589728;27;20063;-93
2022/12/11 14:45:59;;;;;;;8.97;4.73;;;3.00;99.90;;;0.59;88.78;98620.88;10584026;27;20063;-93
2022/12/11 14:51:07;;;;;;;7.28;3.75;;;3.00;99.90;;;0.54;88.30;98623.13;10573558;27;20469;-95
2022/12/11 14:56:22;;;;;;;32.60;10.03;;;3.00;99.90;;;0.49;88.38;98622.72;10597608;27;20113;-94
2022/12/11 15:01:33;;;;;;;37.03;10.57;;;2.90;99.90;;;0.42;88.68;98629.44;10594048;27;20435;-95
2022/12/11 15:06:48;;;;;;;19.27;7.37;;;2.90;99.90;;;0.40;88.63;98631.38;10598622;27;20097;-94
2022/12/11 15:11:54;;;;;;;13.10;5.10;;;2.80;99.90;;;0.35;88.33;98649.28;10631524;27;20850;-96
2022/12/11 15:16:57;;;;;;;11.27;4.83;;;2.80;99.90;;;0.28;88.58;98643.78;10600663;27;20091;-94
2022/12/11 15:22:08;;;;;;;9.47;4.13;;;2.70;99.90;;;0.25;88.06;98671.03;10604830;27;20059;-96
2022/12/11 15:27:29;;;;;;;;;;;2.70;99.90;;;0.18;88.08;98654.28;10571683;28;20079;-95
2022/12/11 15:32:32;;;;;;;8.57;4.17;;;2.60;99.90;;;0.14;88.32;98658.13;10616703;27;19931;-94
2022/12/11 15:37:37;;;;;;;6.40;3.70;;;2.60;99.90;;;0.13;87.86;98663.50;10598199;27;20063;-95
2022/12/11 15:42:41;;;;;;;9.70;4.20;;;2.60;99.90;;;0.08;87.83;98653.44;10588367;27;20534;-92
2022/12/11 15:47:45;;;;;;;8.83;4.20;;;2.50;99.90;;;0.05;87.74;98658.94;10587937;27;20060;-95
2022/12/11 15:52:50;;;;;;;9.77;4.27;;;2.50;99.90;;;0.01;87.09;98657.59;10587226;27;20246;-95
2022/12/11 15:58:02;;;;;;;11.43;4.60;;;2.40;99.90;;;-0.04;86.77;98660.59;10602846;27;20060;-95
2022/12/11 16:03:05;;;;;;;6.37;3.37;;;2.40;99.90;;;-0.04;86.45;98659.78;10593983;27;20055;-95
2022/12/11 16:08:13;;;;;;;8.47;3.90;;;2.40;99.90;;;-0.12;86.34;98657.00;10596207;27;20105;-94
2022/12/11 16:13:17;;;;;;;8.23;3.77;;;2.30;99.90;;;-0.12;86.32;98668.31;10582225;27;20071;-93
2022/12/11 16:18:22;;;;;;;8.83;3.57;;;2.30;99.90;;;-0.14;86.67;98685.06;10557492;28;20442;-92
2022/12/11 16:23:28;;;;;;;7.83;3.57;;;2.30;99.90;;;-0.17;86.12;98693.19;10601298;27;20052;-92
2022/12/11 16:28:30;;;;;;;8.30;3.77;;;2.20;99.90;;;-0.19;85.63;98690.69;10596927;27;20482;-94
2022/12/11 16:33:34;;;;;;;7.40;3.47;;;2.20;99.90;;;-0.23;86.03;98698.94;10607214;27;20507;-94
2022/12/11 16:38:37;;;;;;;7.77;3.30;;;2.10;99.90;;;-0.27;85.51;98696.59;10596834;27;20066;-95
2022/12/11 16:43:40;;;;;;;7.27;3.57;;;2.10;99.90;;;-0.29;85.15;98701.13;10554082;28;20478;-92
2022/12/11 16:48:44;;;;;;;10.70;4.33;;;2.10;99.90;;;-0.31;85.55;98703.03;10610001;27;20393;-94
2022/12/11 16:53:47;;;;;;;8.67;4.30;;;2.10;99.90;;;-0.35;85.00;98701.69;10593823;27;20098;-95
2022/12/11 16:58:50;;;;;;;6.53;3.63;;;2.10;99.90;;;-0.38;85.50;98699.31;10583019;27;20548;-94
2022/12/11 17:03:53;;;;;;;7.40;3.13;;;2.10;99.90;;;-0.40;84.88;98711.69;10566369;27;20060;-93
2022/12/11 17:08:56;;;;;;;9.53;4.33;;;2.00;99.90;;;-0.43;85.34;98711.94;10593727;28;20062;-94
2022/12/11 17:13:59;;;;;;;8.87;3.70;;;2.00;99.90;;;-0.44;85.24;98709.47;10632671;27;20091;-95
2022/12/11 17:19:06;;;;;;;6.37;3.57;;;2.00;99.90;;;-0.46;84.88;98717.44;10635784;27;20056;-94
2022/12/11 17:24:09;;;;;;;9.07;3.63;;;2.00;99.90;;;-0.50;84.57;98710.84;10593009;27;20058;-92
2022/12/11 17:29:13;;;;;;;9.90;5.03;;;1.90;99.90;;;-0.48;85.05;98718.53;10616905;27;20503;-94
2022/12/11 17:34:16;;;;;;;10.10;4.30;;;2.00;99.90;;;-0.53;84.74;98721.56;10584316;27;20173;-93
2022/12/11 17:39:19;;;;;;;6.27;3.37;;;1.90;99.90;;;-0.56;84.68;98725.25;10599162;27;20059;-92
2022/12/11 17:44:23;;;;;;;10.33;4.07;;;1.90;99.90;;;-0.58;84.91;98718.53;10598592;27;20059;-93
2022/12/11 17:49:29;;;;;;;10.27;4.87;;;1.90;99.90;;;-0.56;84.35;98742.69;10600508;27;20059;-95
2022/12/11 17:54:32;;;;;;;12.13;4.53;;;1.80;99.90;;;-0.58;84.92;98748.03;10603437;27;20051;-95
2022/12/11 17:59:35;;;;;;;11.70;4.17;;;1.90;99.90;;;-0.61;84.82;98744.88;10599222;27;20136;-94
2022/12/11 18:04:41;;;;;;;11.27;4.23;;;1.80;99.90;;;-0.64;85.37;98740.75;10598857;27;20056;-94
2022/12/11 18:09:46;;;;;;;9.80;4.67;;;1.80;99.90;;;-0.65;85.68;98733.06;10606859;27;20079;-93
2022/12/11 18:14:48;;;;;;;9.50;3.90;;;1.80;99.90;;;-0.65;85.55;98746.09;10600773;27;20056;-94
2022/12/11 18:19:52;;;;;;;9.77;3.80;;;1.70;99.90;;;-0.69;85.43;98734.28;10559159;28;20052;-94
2022/12/11 18:24:57;;;;;;;6.83;3.50;;;1.80;99.90;;;-0.66;85.06;98752.25;10593270;27;20056;-96
2022/12/11 18:30:01;;;;;;;7.83;4.00;;;1.70;99.90;;;-0.72;85.04;98747.56;10545050;27;20073;-95
2022/12/11 18:35:05;;;;;;;13.67;5.03;;;1.70;99.90;;;-0.69;85.42;98763.78;10587806;27;20142;-94
2022/12/11 18:40:10;;;;;;;11.33;4.30;;;1.70;99.90;;;-0.69;85.73;98771.63;10624788;27;20063;-88
2022/12/11 18:45:14;;;;;;;7.43;3.97;;;1.70;99.90;;;-0.70;85.67;98766.53;10620138;27;20105;-89
2022/12/11 18:50:17;;;;;;;7.90;3.83;;;1.70;99.90;;;-0.71;85.41;98767.50;10573549;27;20407;-88
2022/12/11 18:55:20;;;;;;;12.37;4.53;;;1.70;99.90;;;-0.72;85.87;98784.94;10594838;27;20736;-88
2022/12/11 19:00:23;;;;;;;9.07;4.33;;;1.70;99.90;;;-0.71;85.67;98796.19;10580359;27;20082;-89
2022/12/11 19:05:28;;;;;;;9.87;4.60;;;1.70;99.90;;;-0.74;85.85;98801.66;10620290;27;20066;-88
2022/12/11 19:10:32;;;;;;;9.27;4.13;;;1.70;99.90;;;-0.72;85.69;98799.75;10593357;27;20124;-89
2022/12/11 19:15:42;;;;;;;9.23;3.37;;;1.70;99.90;;;-0.73;85.89;98801.53;10573052;27;20064;-89
2022/12/11 19:20:47;;;;;;;6.90;3.93;;;1.70;99.90;;;-0.74;86.10;98807.69;10592091;27;20067;-89
2022/12/11 19:25:57;;;;;;;8.90;4.05;;;1.70;99.90;;;-0.75;86.16;98815.66;10610810;27;20073;-89
2022/12/11 19:31:00;;;;;;;7.60;4.00;;;1.70;99.90;;;-0.76;86.21;98814.84;10590563;27;20066;-90
2022/12/11 19:36:16;;;;;;;10.87;4.67;;;1.70;99.90;;;-0.75;85.78;98816.50;10592134;27;20081;-90
2022/12/11 19:41:28;;;;;;;8.63;4.13;;;1.70;99.90;;;-0.76;85.67;98808.81;10604969;27;20064;-90
2022/12/11 19:46:31;;;;;;;;;;;1.70;99.90;;;-0.76;85.70;98800.97;10588300;27;20066;-90
2022/12/11 19:51:38;;;;;;;8.03;3.80;;;1.70;99.90;;;-0.77;85.46;98812.38;10563608;27;19981;-91
2022/12/11 19:56:40;;;;;;;11.10;5.20;;;1.60;99.90;;;-0.78;85.62;98806.34;10587586;27;20171;-89
2022/12/11 20:01:46;;;;;;;13.53;4.87;;;1.60;99.90;;;-0.80;85.53;98805.63;10608472;27;20062;-89
2022/12/11 20:06:50;;;;;;;9.20;4.53;;;1.60;99.90;;;-0.79;85.40;98811.66;10596967;27;20337;-90
2022/12/11 20:11:53;;;;;;;11.13;5.37;;;1.60;99.90;;;-0.78;85.09;98810.69;10598220;27;20411;-90
2022/12/11 20:16:57;;;;;;;10.07;4.50;;;1.60;99.90;;;-0.79;84.68;98815.09;10598430;27;20051;-90
2022/12/11 20:22:16;;;;;;;13.80;5.00;;;1.60;99.90;;;-0.84;84.55;98807.69;10597675;27;20059;-89
2022/12/11 20:27:19;;;;;;;9.13;4.63;;;1.60;99.90;;;-0.80;84.86;98813.44;10580217;27;20090;-89
2022/12/11 20:32:22;;;;;;;13.30;5.47;;;1.60;99.90;;;-0.85;85.67;98816.44;10579865;27;20059;-88
2022/12/11 20:37:27;;;;;;;10.87;4.80;;;1.60;99.90;;;-0.91;85.79;98829.97;10571762;27;20147;-89
2022/12/11 20:42:31;;;;;;;8.30;4.27;;;1.60;99.90;;;-0.91;85.92;98816.94;10556290;27;20071;-89
2022/12/11 20:47:34;;;;;;;11.60;5.23;;;1.50;99.90;;;-0.91;86.15;98827.38;10589302;27;20066;-89
2022/12/11 20:52:37;;;;;;;10.50;5.27;;;1.50;99.90;;;-0.95;86.28;98814.75;10592760;27;20059;-89
2022/12/11 20:57:40;;;;;;;12.30;5.50;;;1.50;99.90;;;-1.00;86.89;98825.56;10596297;27;20066;-90
2022/12/11 21:02:49;;;;;;;12.43;4.87;;;1.40;99.90;;;-1.01;86.49;98816.09;10602951;27;20055;-89
2022/12/11 21:07:53;;;;;;;11.13;4.47;;;1.40;99.90;;;-1.09;86.76;98814.09;10583933;27;20063;-89
2022/12/11 21:12:56;;;;;;;8.53;3.87;;;1.30;99.90;;;-1.11;86.87;98821.22;10555031;27;20056;-89
2022/12/11 21:17:59;;;;;;;9.50;4.57;;;1.30;99.90;;;-1.12;87.30;98827.41;10597894;27;20143;-90
2022/12/11 21:23:03;;;;;;;7.97;4.00;;;1.30;99.90;;;-1.13;87.31;98827.53;10547132;27;20060;-89
2022/12/11 21:28:06;;;;;;;9.47;4.60;;;1.30;99.90;;;-1.15;87.31;98845.06;10565983;27;20060;-88
2022/12/11 21:33:09;;;;;;;9.87;4.60;;;1.30;99.90;;;-1.16;87.95;98848.63;10597140;27;20091;-88
2022/12/11 21:38:12;;;;;;;11.43;4.83;;;1.20;99.90;;;-1.18;88.12;98858.38;10529821;27;20452;-88
2022/12/11 21:43:15;;;;;;;10.00;5.23;;;1.20;99.90;;;-1.20;87.85;98865.47;10556183;27;20086;-89